sensor_id;sensor_type;location;lat;lon;timestamp;P1;durP1;ratioP1;P2;durP2;ratioP2
8698;SDS011;4386;51.236;6.742;2022-12-10T00:00:34;51.75;;;30.70;;
8698;SDS011;4386;51.236;6.742;2022-12-10T00:01:36;50.05;;;28.40;;
8698;SDS011;4386;51.236;6.742;2022-12-10T00:02:39;48.95;;;26.83;;
8698;SDS011;4386;51.236;6.742;2022-12-10T00:03:41;50.45;;;28.27;;
8698;SDS011;4386;51.236;6.742;2022-12-10T00:04:44;51.25;;;30.10;;
8698;SDS011;4386;51.236;6.742;2022-12-10T00:05:49;51.20;;;29.00;;
8698;SDS011;4386;51.236;6.742;2022-12-10T00:06:52;53.28;;;29.00;;
8698;SDS011;4386;51.236;6.742;2022-12-10T00:07:54;46.00;;;27.27;;
8698;SDS011;4386;51.236;6.742;2022-12-10T00:08:57;46.63;;;27.20;;
8698;SDS011;4386;51.236;6.742;2022-12-10T00:09:59;50.42;;;28.33;;
8698;SDS011;4386;51.236;6.742;2022-12-10T00:11:03;48.65;;;27.23;;
8698;SDS011;4386;51.236;6.742;2022-12-10T00:12:07;45.40;;;27.65;;
8698;SDS011;4386;51.236;6.742;2022-12-10T00:13:10;48.90;;;28.02;;
8698;SDS011;4386;51.236;6.742;2022-12-10T00:14:12;50.47;;;28.00;;
8698;SDS011;4386;51.236;6.742;2022-12-10T00:15:16;49.67;;;28.10;;
8698;SDS011;4386;51.236;6.742;2022-12-10T00:16:18;47.53;;;28.42;;
8698;SDS011;4386;51.236;6.742;2022-12-10T00:17:22;52.88;;;28.75;;
8698;SDS011;4386;51.236;6.742;2022-12-10T00:18:24;49.20;;;29.30;;
8698;SDS011;4386;51.236;6.742;2022-12-10T00:19:26;50.10;;;30.33;;
8698;SDS011;4386;51.236;6.742;2022-12-10T00:20:29;54.60;;;28.60;;
8698;SDS011;4386;51.236;6.742;2022-12-10T00:21:31;48.47;;;28.25;;
8698;SDS011;4386;51.236;6.742;2022-12-10T00:22:35;47.58;;;28.17;;
8698;SDS011;4386;51.236;6.742;2022-12-10T00:23:37;51.75;;;28.55;;
8698;SDS011;4386;51.236;6.742;2022-12-10T00:24:40;49.55;;;27.35;;
8698;SDS011;4386;51.236;6.742;2022-12-10T00:25:43;50.78;;;29.90;;
8698;SDS011;4386;51.236;6.742;2022-12-10T00:26:44;51.63;;;29.05;;
8698;SDS011;4386;51.236;6.742;2022-12-10T00:27:47;49.03;;;28.35;;
8698;SDS011;4386;51.236;6.742;2022-12-10T00:28:50;50.40;;;28.10;;
8698;SDS011;4386;51.236;6.742;2022-12-10T00:29:53;53.67;;;29.73;;
8698;SDS011;4386;51.236;6.742;2022-12-10T00:30:56;50.55;;;28.25;;
8698;SDS011;4386;51.236;6.742;2022-12-10T00:32:04;47.33;;;27.60;;
8698;SDS011;4386;51.236;6.742;2022-12-10T00:33:07;45.67;;;26.88;;
8698;SDS011;4386;51.236;6.742;2022-12-10T00:34:09;49.97;;;28.17;;
8698;SDS011;4386;51.236;6.742;2022-12-10T00:35:13;50.03;;;28.05;;
8698;SDS011;4386;51.236;6.742;2022-12-10T00:36:15;50.15;;;27.65;;
8698;SDS011;4386;51.236;6.742;2022-12-10T00:37:20;46.67;;;28.95;;
8698;SDS011;4386;51.236;6.742;2022-12-10T00:38:21;52.08;;;29.10;;
8698;SDS011;4386;51.236;6.742;2022-12-10T00:39:24;49.38;;;28.05;;
8698;SDS011;4386;51.236;6.742;2022-12-10T00:40:25;52.00;;;27.33;;
8698;SDS011;4386;51.236;6.742;2022-12-10T00:41:28;49.78;;;28.73;;
8698;SDS011;4386;51.236;6.742;2022-12-10T00:42:30;52.65;;;29.27;;
8698;SDS011;4386;51.236;6.742;2022-12-10T00:43:33;52.30;;;28.80;;
8698;SDS011;4386;51.236;6.742;2022-12-10T00:44:35;47.75;;;28.50;;
8698;SDS011;4386;51.236;6.742;2022-12-10T00:45:38;45.92;;;26.77;;
8698;SDS011;4386;51.236;6.742;2022-12-10T00:46:40;47.90;;;26.45;;
8698;SDS011;4386;51.236;6.742;2022-12-10T00:47:42;48.47;;;27.50;;
8698;SDS011;4386;51.236;6.742;2022-12-10T00:48:44;43.42;;;26.63;;
8698;SDS011;4386;51.236;6.742;2022-12-10T00:49:46;49.28;;;28.90;;
8698;SDS011;4386;51.236;6.742;2022-12-10T00:50:54;49.75;;;28.67;;
8698;SDS011;4386;51.236;6.742;2022-12-10T00:51:58;49.50;;;28.08;;
8698;SDS011;4386;51.236;6.742;2022-12-10T00:53:00;46.40;;;27.10;;
8698;SDS011;4386;51.236;6.742;2022-12-10T00:54:02;44.88;;;26.70;;
8698;SDS011;4386;51.236;6.742;2022-12-10T00:55:07;51.67;;;27.88;;
8698;SDS011;4386;51.236;6.742;2022-12-10T00:56:10;52.05;;;27.83;;
8698;SDS011;4386;51.236;6.742;2022-12-10T00:57:13;46.60;;;26.98;;
8698;SDS011;4386;51.236;6.742;2022-12-10T00:58:15;45.65;;;27.67;;
8698;SDS011;4386;51.236;6.742;2022-12-10T00:59:18;46.42;;;26.20;;
8698;SDS011;4386;51.236;6.742;2022-12-10T01:00:20;50.38;;;28.08;;
8698;SDS011;4386;51.236;6.742;2022-12-10T01:01:24;46.92;;;27.33;;
8698;SDS011;4386;51.236;6.742;2022-12-10T01:02:28;53.95;;;30.35;;
8698;SDS011;4386;51.236;6.742;2022-12-10T01:03:31;46.55;;;27.80;;
8698;SDS011;4386;51.236;6.742;2022-12-10T01:04:32;47.70;;;27.00;;
8698;SDS011;4386;51.236;6.742;2022-12-10T01:05:35;50.70;;;28.27;;
8698;SDS011;4386;51.236;6.742;2022-12-10T01:06:40;50.97;;;28.05;;
8698;SDS011;4386;51.236;6.742;2022-12-10T01:07:44;49.65;;;28.63;;
8698;SDS011;4386;51.236;6.742;2022-12-10T01:08:46;53.72;;;28.80;;
8698;SDS011;4386;51.236;6.742;2022-12-10T01:09:50;45.50;;;26.17;;
8698;SDS011;4386;51.236;6.742;2022-12-10T01:10:52;45.95;;;27.95;;
8698;SDS011;4386;51.236;6.742;2022-12-10T01:11:55;50.58;;;28.38;;
8698;SDS011;4386;51.236;6.742;2022-12-10T01:12:59;55.42;;;29.85;;
8698;SDS011;4386;51.236;6.742;2022-12-10T01:14:02;54.03;;;28.80;;
8698;SDS011;4386;51.236;6.742;2022-12-10T01:15:05;50.75;;;29.00;;
8698;SDS011;4386;51.236;6.742;2022-12-10T01:16:10;54.08;;;30.25;;
8698;SDS011;4386;51.236;6.742;2022-12-10T01:17:19;48.53;;;27.73;;
8698;SDS011;4386;51.236;6.742;2022-12-10T01:18:22;48.95;;;28.20;;
8698;SDS011;4386;51.236;6.742;2022-12-10T01:19:25;54.55;;;29.90;;
8698;SDS011;4386;51.236;6.742;2022-12-10T01:20:27;58.10;;;29.92;;
8698;SDS011;4386;51.236;6.742;2022-12-10T01:21:29;52.65;;;30.60;;
8698;SDS011;4386;51.236;6.742;2022-12-10T01:22:32;51.10;;;29.35;;
8698;SDS011;4386;51.236;6.742;2022-12-10T01:23:33;51.88;;;27.85;;
8698;SDS011;4386;51.236;6.742;2022-12-10T01:24:37;47.58;;;28.90;;
8698;SDS011;4386;51.236;6.742;2022-12-10T01:25:39;58.28;;;31.13;;
8698;SDS011;4386;51.236;6.742;2022-12-10T01:26:41;52.83;;;29.40;;
8698;SDS011;4386;51.236;6.742;2022-12-10T01:27:43;53.25;;;29.52;;
8698;SDS011;4386;51.236;6.742;2022-12-10T01:28:46;47.67;;;29.00;;
8698;SDS011;4386;51.236;6.742;2022-12-10T01:29:48;51.42;;;29.35;;
8698;SDS011;4386;51.236;6.742;2022-12-10T01:30:50;52.28;;;29.70;;
8698;SDS011;4386;51.236;6.742;2022-12-10T01:31:54;50.75;;;29.27;;
8698;SDS011;4386;51.236;6.742;2022-12-10T01:32:58;50.90;;;29.00;;
8698;SDS011;4386;51.236;6.742;2022-12-10T01:34:00;54.72;;;29.25;;
8698;SDS011;4386;51.236;6.742;2022-12-10T01:35:03;54.88;;;29.90;;
8698;SDS011;4386;51.236;6.742;2022-12-10T01:36:06;49.47;;;28.55;;
8698;SDS011;4386;51.236;6.742;2022-12-10T01:37:10;56.58;;;30.10;;
8698;SDS011;4386;51.236;6.742;2022-12-10T01:38:13;55.42;;;29.80;;
8698;SDS011;4386;51.236;6.742;2022-12-10T01:39:22;54.20;;;30.13;;
8698;SDS011;4386;51.236;6.742;2022-12-10T01:40:24;50.58;;;27.73;;
8698;SDS011;4386;51.236;6.742;2022-12-10T01:41:27;52.38;;;29.35;;
8698;SDS011;4386;51.236;6.742;2022-12-10T01:42:32;53.83;;;28.42;;
8698;SDS011;4386;51.236;6.742;2022-12-10T01:43:50;55.42;;;30.60;;
8698;SDS011;4386;51.236;6.742;2022-12-10T01:45:04;57.55;;;29.95;;
8698;SDS011;4386;51.236;6.742;2022-12-10T01:46:12;53.22;;;27.75;;
8698;SDS011;4386;51.236;6.742;2022-12-10T01:47:15;49.65;;;28.00;;
8698;SDS011;4386;51.236;6.742;2022-12-10T01:48:17;52.42;;;28.70;;
8698;SDS011;4386;51.236;6.742;2022-12-10T01:49:20;52.25;;;29.35;;
8698;SDS011;4386;51.236;6.742;2022-12-10T01:50:23;51.25;;;29.38;;
8698;SDS011;4386;51.236;6.742;2022-12-10T01:51:30;51.53;;;31.70;;
8698;SDS011;4386;51.236;6.742;2022-12-10T01:52:32;57.00;;;29.95;;
8698;SDS011;4386;51.236;6.742;2022-12-10T01:53:35;62.53;;;31.13;;
8698;SDS011;4386;51.236;6.742;2022-12-10T01:54:38;52.15;;;28.95;;
8698;SDS011;4386;51.236;6.742;2022-12-10T01:55:44;52.38;;;27.80;;
8698;SDS011;4386;51.236;6.742;2022-12-10T01:56:50;50.30;;;29.50;;
8698;SDS011;4386;51.236;6.742;2022-12-10T01:57:56;63.35;;;31.83;;
8698;SDS011;4386;51.236;6.742;2022-12-10T01:58:58;62.47;;;30.10;;
8698;SDS011;4386;51.236;6.742;2022-12-10T02:00:01;57.17;;;30.45;;
8698;SDS011;4386;51.236;6.742;2022-12-10T02:01:13;59.00;;;31.10;;
8698;SDS011;4386;51.236;6.742;2022-12-10T02:02:24;60.80;;;32.60;;
8698;SDS011;4386;51.236;6.742;2022-12-10T02:03:37;60.10;;;31.70;;
8698;SDS011;4386;51.236;6.742;2022-12-10T02:04:47;60.80;;;31.50;;
8698;SDS011;4386;51.236;6.742;2022-12-10T02:05:58;60.30;;;31.77;;
8698;SDS011;4386;51.236;6.742;2022-12-10T02:07:09;66.10;;;33.78;;
8698;SDS011;4386;51.236;6.742;2022-12-10T02:08:17;55.45;;;30.55;;
8698;SDS011;4386;51.236;6.742;2022-12-10T02:09:27;90.60;;;33.90;;
8698;SDS011;4386;51.236;6.742;2022-12-10T02:10:39;60.60;;;29.73;;
8698;SDS011;4386;51.236;6.742;2022-12-10T02:11:49;66.72;;;31.77;;
8698;SDS011;4386;51.236;6.742;2022-12-10T02:13:01;72.95;;;29.98;;
8698;SDS011;4386;51.236;6.742;2022-12-10T02:14:09;83.78;;;31.55;;
8698;SDS011;4386;51.236;6.742;2022-12-10T02:15:17;92.47;;;32.63;;
8698;SDS011;4386;51.236;6.742;2022-12-10T02:16:25;115.35;;;33.58;;
8698;SDS011;4386;51.236;6.742;2022-12-10T02:17:34;86.00;;;32.65;;
8698;SDS011;4386;51.236;6.742;2022-12-10T02:18:41;133.65;;;31.95;;
8698;SDS011;4386;51.236;6.742;2022-12-10T02:19:57;72.43;;;31.23;;
8698;SDS011;4386;51.236;6.742;2022-12-10T02:21:06;135.38;;;33.67;;
8698;SDS011;4386;51.236;6.742;2022-12-10T02:22:11;127.60;;;33.38;;
8698;SDS011;4386;51.236;6.742;2022-12-10T02:23:16;200.23;;;35.10;;
8698;SDS011;4386;51.236;6.742;2022-12-10T02:24:24;159.65;;;33.78;;
8698;SDS011;4386;51.236;6.742;2022-12-10T02:25:36;196.40;;;35.15;;
8698;SDS011;4386;51.236;6.742;2022-12-10T02:26:45;183.80;;;34.33;;
8698;SDS011;4386;51.236;6.742;2022-12-10T02:27:57;168.63;;;33.45;;
8698;SDS011;4386;51.236;6.742;2022-12-10T02:29:08;188.18;;;36.97;;
8698;SDS011;4386;51.236;6.742;2022-12-10T02:30:15;178.98;;;34.50;;
8698;SDS011;4386;51.236;6.742;2022-12-10T02:31:17;103.85;;;33.42;;
8698;SDS011;4386;51.236;6.742;2022-12-10T02:32:23;142.70;;;33.78;;
8698;SDS011;4386;51.236;6.742;2022-12-10T02:33:35;154.07;;;33.55;;
8698;SDS011;4386;51.236;6.742;2022-12-10T02:34:42;94.18;;;33.38;;
8698;SDS011;4386;51.236;6.742;2022-12-10T02:35:49;112.53;;;34.28;;
8698;SDS011;4386;51.236;6.742;2022-12-10T02:36:53;164.77;;;36.63;;
8698;SDS011;4386;51.236;6.742;2022-12-10T02:37:57;131.15;;;33.38;;
8698;SDS011;4386;51.236;6.742;2022-12-10T02:39:05;115.82;;;32.78;;
8698;SDS011;4386;51.236;6.742;2022-12-10T02:40:13;121.15;;;33.83;;
8698;SDS011;4386;51.236;6.742;2022-12-10T02:41:22;127.97;;;33.40;;
8698;SDS011;4386;51.236;6.742;2022-12-10T02:42:26;144.18;;;35.47;;
8698;SDS011;4386;51.236;6.742;2022-12-10T02:43:32;130.98;;;34.70;;
8698;SDS011;4386;51.236;6.742;2022-12-10T02:44:41;109.63;;;30.85;;
8698;SDS011;4386;51.236;6.742;2022-12-10T02:45:46;102.38;;;32.17;;
8698;SDS011;4386;51.236;6.742;2022-12-10T02:46:49;124.28;;;32.35;;
8698;SDS011;4386;51.236;6.742;2022-12-10T02:47:56;103.97;;;33.75;;
8698;SDS011;4386;51.236;6.742;2022-12-10T02:49:00;111.60;;;33.83;;
8698;SDS011;4386;51.236;6.742;2022-12-10T02:50:05;117.22;;;34.60;;
8698;SDS011;4386;51.236;6.742;2022-12-10T02:51:09;139.77;;;33.78;;
8698;SDS011;4386;51.236;6.742;2022-12-10T02:52:12;144.88;;;33.38;;
8698;SDS011;4386;51.236;6.742;2022-12-10T02:53:15;199.23;;;34.53;;
8698;SDS011;4386;51.236;6.742;2022-12-10T02:54:34;125.80;;;33.95;;
8698;SDS011;4386;51.236;6.742;2022-12-10T02:55:42;123.55;;;33.17;;
8698;SDS011;4386;51.236;6.742;2022-12-10T02:56:55;88.75;;;32.15;;
8698;SDS011;4386;51.236;6.742;2022-12-10T02:58:03;77.35;;;32.83;;
8698;SDS011;4386;51.236;6.742;2022-12-10T02:59:14;84.53;;;33.45;;
8698;SDS011;4386;51.236;6.742;2022-12-10T03:00:22;88.63;;;33.40;;
8698;SDS011;4386;51.236;6.742;2022-12-10T03:01:27;75.95;;;31.88;;
8698;SDS011;4386;51.236;6.742;2022-12-10T03:02:39;89.43;;;34.13;;
8698;SDS011;4386;51.236;6.742;2022-12-10T03:03:52;80.25;;;32.90;;
8698;SDS011;4386;51.236;6.742;2022-12-10T03:05:01;69.55;;;30.08;;
8698;SDS011;4386;51.236;6.742;2022-12-10T03:06:09;86.15;;;32.92;;
8698;SDS011;4386;51.236;6.742;2022-12-10T03:07:18;73.25;;;35.03;;
8698;SDS011;4386;51.236;6.742;2022-12-10T03:08:28;70.60;;;31.80;;
8698;SDS011;4386;51.236;6.742;2022-12-10T03:09:36;71.00;;;30.90;;
8698;SDS011;4386;51.236;6.742;2022-12-10T03:10:43;75.30;;;33.42;;
8698;SDS011;4386;51.236;6.742;2022-12-10T03:11:54;61.10;;;32.17;;
8698;SDS011;4386;51.236;6.742;2022-12-10T03:13:02;88.88;;;34.17;;
8698;SDS011;4386;51.236;6.742;2022-12-10T03:14:10;62.95;;;31.88;;
8698;SDS011;4386;51.236;6.742;2022-12-10T03:15:17;60.35;;;31.67;;
8698;SDS011;4386;51.236;6.742;2022-12-10T03:16:31;68.10;;;32.60;;
8698;SDS011;4386;51.236;6.742;2022-12-10T03:17:38;62.97;;;31.80;;
8698;SDS011;4386;51.236;6.742;2022-12-10T03:18:42;63.70;;;30.65;;
8698;SDS011;4386;51.236;6.742;2022-12-10T03:19:48;68.57;;;33.08;;
8698;SDS011;4386;51.236;6.742;2022-12-10T03:20:52;57.88;;;30.20;;
8698;SDS011;4386;51.236;6.742;2022-12-10T03:21:58;64.72;;;32.60;;
8698;SDS011;4386;51.236;6.742;2022-12-10T03:23:02;59.28;;;31.23;;
8698;SDS011;4386;51.236;6.742;2022-12-10T03:24:07;49.22;;;30.35;;
8698;SDS011;4386;51.236;6.742;2022-12-10T03:25:10;63.47;;;31.98;;
8698;SDS011;4386;51.236;6.742;2022-12-10T03:26:15;53.63;;;31.33;;
8698;SDS011;4386;51.236;6.742;2022-12-10T03:27:19;67.53;;;33.10;;
8698;SDS011;4386;51.236;6.742;2022-12-10T03:28:34;57.30;;;30.25;;
8698;SDS011;4386;51.236;6.742;2022-12-10T03:29:41;59.58;;;32.33;;
8698;SDS011;4386;51.236;6.742;2022-12-10T03:30:48;55.17;;;30.80;;
8698;SDS011;4386;51.236;6.742;2022-12-10T03:31:53;55.40;;;29.73;;
8698;SDS011;4386;51.236;6.742;2022-12-10T03:32:56;64.90;;;32.42;;
8698;SDS011;4386;51.236;6.742;2022-12-10T03:33:58;59.60;;;31.60;;
8698;SDS011;4386;51.236;6.742;2022-12-10T03:35:01;58.35;;;30.23;;
8698;SDS011;4386;51.236;6.742;2022-12-10T03:36:04;51.70;;;29.90;;
8698;SDS011;4386;51.236;6.742;2022-12-10T03:37:09;52.45;;;29.23;;
8698;SDS011;4386;51.236;6.742;2022-12-10T03:38:12;57.17;;;31.27;;
8698;SDS011;4386;51.236;6.742;2022-12-10T03:39:15;54.88;;;29.63;;
8698;SDS011;4386;51.236;6.742;2022-12-10T03:40:20;50.72;;;28.80;;
8698;SDS011;4386;51.236;6.742;2022-12-10T03:41:26;55.45;;;29.95;;
8698;SDS011;4386;51.236;6.742;2022-12-10T03:42:27;53.30;;;29.27;;
8698;SDS011;4386;51.236;6.742;2022-12-10T03:43:30;56.03;;;27.95;;
8698;SDS011;4386;51.236;6.742;2022-12-10T03:44:32;55.10;;;30.75;;
8698;SDS011;4386;51.236;6.742;2022-12-10T03:45:37;69.07;;;29.65;;
8698;SDS011;4386;51.236;6.742;2022-12-10T03:46:38;57.15;;;28.33;;
8698;SDS011;4386;51.236;6.742;2022-12-10T03:47:42;54.60;;;28.13;;
8698;SDS011;4386;51.236;6.742;2022-12-10T03:48:44;51.67;;;27.00;;
8698;SDS011;4386;51.236;6.742;2022-12-10T03:49:47;51.63;;;27.15;;
8698;SDS011;4386;51.236;6.742;2022-12-10T03:50:49;47.80;;;26.52;;
8698;SDS011;4386;51.236;6.742;2022-12-10T03:51:51;54.63;;;28.30;;
8698;SDS011;4386;51.236;6.742;2022-12-10T03:52:53;47.40;;;26.48;;
8698;SDS011;4386;51.236;6.742;2022-12-10T03:53:56;50.78;;;27.48;;
8698;SDS011;4386;51.236;6.742;2022-12-10T03:54:57;48.92;;;26.42;;
8698;SDS011;4386;51.236;6.742;2022-12-10T03:56:00;50.97;;;25.30;;
8698;SDS011;4386;51.236;6.742;2022-12-10T03:57:01;51.92;;;26.08;;
8698;SDS011;4386;51.236;6.742;2022-12-10T03:58:04;50.28;;;25.25;;
8698;SDS011;4386;51.236;6.742;2022-12-10T03:59:06;50.50;;;24.73;;
8698;SDS011;4386;51.236;6.742;2022-12-10T04:00:09;45.03;;;24.48;;
8698;SDS011;4386;51.236;6.742;2022-12-10T04:01:12;47.10;;;25.63;;
8698;SDS011;4386;51.236;6.742;2022-12-10T04:02:15;46.25;;;25.02;;
8698;SDS011;4386;51.236;6.742;2022-12-10T04:03:18;41.75;;;24.30;;
8698;SDS011;4386;51.236;6.742;2022-12-10T04:04:20;49.38;;;25.38;;
8698;SDS011;4386;51.236;6.742;2022-12-10T04:05:22;45.35;;;24.45;;
8698;SDS011;4386;51.236;6.742;2022-12-10T04:06:25;48.63;;;24.67;;
8698;SDS011;4386;51.236;6.742;2022-12-10T04:07:27;44.95;;;25.25;;
8698;SDS011;4386;51.236;6.742;2022-12-10T04:08:29;49.67;;;25.50;;
8698;SDS011;4386;51.236;6.742;2022-12-10T04:09:31;49.45;;;25.10;;
8698;SDS011;4386;51.236;6.742;2022-12-10T04:10:34;47.67;;;25.60;;
8698;SDS011;4386;51.236;6.742;2022-12-10T04:11:36;48.00;;;24.83;;
8698;SDS011;4386;51.236;6.742;2022-12-10T04:12:44;43.83;;;25.00;;
8698;SDS011;4386;51.236;6.742;2022-12-10T04:14:07;45.70;;;24.65;;
8698;SDS011;4386;51.236;6.742;2022-12-10T04:15:28;42.25;;;23.20;;
8698;SDS011;4386;51.236;6.742;2022-12-10T04:16:48;48.50;;;26.45;;
8698;SDS011;4386;51.236;6.742;2022-12-10T04:17:51;48.35;;;24.98;;
8698;SDS011;4386;51.236;6.742;2022-12-10T04:18:55;46.47;;;25.40;;
8698;SDS011;4386;51.236;6.742;2022-12-10T04:20:01;45.38;;;25.25;;
8698;SDS011;4386;51.236;6.742;2022-12-10T04:21:04;51.45;;;26.55;;
8698;SDS011;4386;51.236;6.742;2022-12-10T04:22:24;56.00;;;28.08;;
8698;SDS011;4386;51.236;6.742;2022-12-10T04:23:45;49.08;;;28.75;;
8698;SDS011;4386;51.236;6.742;2022-12-10T04:25:05;47.20;;;25.88;;
8698;SDS011;4386;51.236;6.742;2022-12-10T04:26:25;47.47;;;25.10;;
8698;SDS011;4386;51.236;6.742;2022-12-10T04:27:46;46.53;;;25.02;;
8698;SDS011;4386;51.236;6.742;2022-12-10T04:28:49;50.60;;;25.60;;
8698;SDS011;4386;51.236;6.742;2022-12-10T04:29:50;48.40;;;25.75;;
8698;SDS011;4386;51.236;6.742;2022-12-10T04:30:54;46.10;;;26.30;;
8698;SDS011;4386;51.236;6.742;2022-12-10T04:31:56;46.88;;;28.20;;
8698;SDS011;4386;51.236;6.742;2022-12-10T04:32:59;45.85;;;26.88;;
8698;SDS011;4386;51.236;6.742;2022-12-10T04:34:02;47.58;;;26.67;;
8698;SDS011;4386;51.236;6.742;2022-12-10T04:35:05;46.53;;;27.90;;
8698;SDS011;4386;51.236;6.742;2022-12-10T04:36:08;46.65;;;26.55;;
8698;SDS011;4386;51.236;6.742;2022-12-10T04:37:11;54.92;;;28.55;;
8698;SDS011;4386;51.236;6.742;2022-12-10T04:38:13;42.90;;;25.38;;
8698;SDS011;4386;51.236;6.742;2022-12-10T04:39:16;45.65;;;26.35;;
8698;SDS011;4386;51.236;6.742;2022-12-10T04:40:18;53.60;;;27.30;;
8698;SDS011;4386;51.236;6.742;2022-12-10T04:41:20;49.97;;;27.40;;
8698;SDS011;4386;51.236;6.742;2022-12-10T04:42:22;54.95;;;28.08;;
8698;SDS011;4386;51.236;6.742;2022-12-10T04:43:25;48.45;;;28.08;;
8698;SDS011;4386;51.236;6.742;2022-12-10T04:44:27;52.85;;;26.40;;
8698;SDS011;4386;51.236;6.742;2022-12-10T04:45:38;49.40;;;26.42;;
8698;SDS011;4386;51.236;6.742;2022-12-10T04:46:41;55.33;;;28.00;;
8698;SDS011;4386;51.236;6.742;2022-12-10T04:47:42;50.65;;;29.05;;
8698;SDS011;4386;51.236;6.742;2022-12-10T04:48:45;53.20;;;26.45;;
8698;SDS011;4386;51.236;6.742;2022-12-10T04:49:48;57.30;;;28.30;;
8698;SDS011;4386;51.236;6.742;2022-12-10T04:50:50;60.10;;;29.75;;
8698;SDS011;4386;51.236;6.742;2022-12-10T04:51:52;56.83;;;27.63;;
8698;SDS011;4386;51.236;6.742;2022-12-10T04:52:56;53.22;;;30.20;;
8698;SDS011;4386;51.236;6.742;2022-12-10T04:53:58;50.38;;;27.02;;
8698;SDS011;4386;51.236;6.742;2022-12-10T04:55:00;57.10;;;27.88;;
8698;SDS011;4386;51.236;6.742;2022-12-10T04:56:02;57.63;;;29.35;;
8698;SDS011;4386;51.236;6.742;2022-12-10T04:57:06;59.65;;;28.80;;
8698;SDS011;4386;51.236;6.742;2022-12-10T04:58:08;53.95;;;29.10;;
8698;SDS011;4386;51.236;6.742;2022-12-10T04:59:11;49.60;;;28.10;;
8698;SDS011;4386;51.236;6.742;2022-12-10T05:00:13;54.45;;;27.63;;
8698;SDS011;4386;51.236;6.742;2022-12-10T05:01:16;57.15;;;28.77;;
8698;SDS011;4386;51.236;6.742;2022-12-10T05:02:19;59.70;;;30.45;;
8698;SDS011;4386;51.236;6.742;2022-12-10T05:03:22;49.83;;;29.30;;
8698;SDS011;4386;51.236;6.742;2022-12-10T05:04:23;54.55;;;30.02;;
8698;SDS011;4386;51.236;6.742;2022-12-10T05:05:28;50.72;;;28.40;;
8698;SDS011;4386;51.236;6.742;2022-12-10T05:06:30;59.78;;;32.50;;
8698;SDS011;4386;51.236;6.742;2022-12-10T05:07:33;57.97;;;30.23;;
8698;SDS011;4386;51.236;6.742;2022-12-10T05:08:35;51.25;;;27.92;;
8698;SDS011;4386;51.236;6.742;2022-12-10T05:09:37;56.17;;;29.60;;
8698;SDS011;4386;51.236;6.742;2022-12-10T05:10:40;50.85;;;28.80;;
8698;SDS011;4386;51.236;6.742;2022-12-10T05:11:42;51.08;;;27.35;;
8698;SDS011;4386;51.236;6.742;2022-12-10T05:12:45;56.30;;;29.88;;
8698;SDS011;4386;51.236;6.742;2022-12-10T05:13:47;55.67;;;29.30;;
8698;SDS011;4386;51.236;6.742;2022-12-10T05:14:49;58.38;;;30.90;;
8698;SDS011;4386;51.236;6.742;2022-12-10T05:15:53;58.38;;;28.63;;
8698;SDS011;4386;51.236;6.742;2022-12-10T05:16:56;61.13;;;30.27;;
8698;SDS011;4386;51.236;6.742;2022-12-10T05:17:58;60.95;;;28.60;;
8698;SDS011;4386;51.236;6.742;2022-12-10T05:19:00;55.78;;;29.58;;
8698;SDS011;4386;51.236;6.742;2022-12-10T05:20:03;53.33;;;28.00;;
8698;SDS011;4386;51.236;6.742;2022-12-10T05:21:12;59.22;;;28.92;;
8698;SDS011;4386;51.236;6.742;2022-12-10T05:22:16;63.00;;;29.60;;
8698;SDS011;4386;51.236;6.742;2022-12-10T05:23:36;57.65;;;29.90;;
8698;SDS011;4386;51.236;6.742;2022-12-10T05:24:39;58.33;;;29.30;;
8698;SDS011;4386;51.236;6.742;2022-12-10T05:25:40;58.05;;;30.58;;
8698;SDS011;4386;51.236;6.742;2022-12-10T05:26:53;55.67;;;29.15;;
8698;SDS011;4386;51.236;6.742;2022-12-10T05:27:55;61.72;;;31.50;;
8698;SDS011;4386;51.236;6.742;2022-12-10T05:28:57;61.35;;;29.08;;
8698;SDS011;4386;51.236;6.742;2022-12-10T05:29:59;56.53;;;28.65;;
8698;SDS011;4386;51.236;6.742;2022-12-10T05:31:02;58.85;;;31.20;;
8698;SDS011;4386;51.236;6.742;2022-12-10T05:32:05;65.00;;;30.08;;
8698;SDS011;4386;51.236;6.742;2022-12-10T05:33:07;62.28;;;31.67;;
8698;SDS011;4386;51.236;6.742;2022-12-10T05:34:09;60.10;;;30.55;;
8698;SDS011;4386;51.236;6.742;2022-12-10T05:35:12;51.42;;;29.35;;
8698;SDS011;4386;51.236;6.742;2022-12-10T05:36:17;58.42;;;29.98;;
8698;SDS011;4386;51.236;6.742;2022-12-10T05:37:21;62.42;;;32.75;;
8698;SDS011;4386;51.236;6.742;2022-12-10T05:38:23;55.15;;;28.58;;
8698;SDS011;4386;51.236;6.742;2022-12-10T05:39:26;58.75;;;29.05;;
8698;SDS011;4386;51.236;6.742;2022-12-10T05:40:28;57.00;;;29.13;;
8698;SDS011;4386;51.236;6.742;2022-12-10T05:41:30;54.70;;;29.38;;
8698;SDS011;4386;51.236;6.742;2022-12-10T05:42:36;60.72;;;31.08;;
8698;SDS011;4386;51.236;6.742;2022-12-10T05:43:38;55.03;;;29.67;;
8698;SDS011;4386;51.236;6.742;2022-12-10T05:44:40;56.83;;;32.28;;
8698;SDS011;4386;51.236;6.742;2022-12-10T05:45:42;56.70;;;29.35;;
8698;SDS011;4386;51.236;6.742;2022-12-10T05:46:44;51.90;;;28.90;;
8698;SDS011;4386;51.236;6.742;2022-12-10T05:47:47;54.90;;;30.55;;
8698;SDS011;4386;51.236;6.742;2022-12-10T05:48:48;60.38;;;31.20;;
8698;SDS011;4386;51.236;6.742;2022-12-10T05:49:51;57.55;;;30.35;;
8698;SDS011;4386;51.236;6.742;2022-12-10T05:50:53;56.47;;;30.10;;
8698;SDS011;4386;51.236;6.742;2022-12-10T05:51:57;61.58;;;31.42;;
8698;SDS011;4386;51.236;6.742;2022-12-10T05:52:58;58.60;;;30.27;;
8698;SDS011;4386;51.236;6.742;2022-12-10T05:54:01;58.03;;;30.13;;
8698;SDS011;4386;51.236;6.742;2022-12-10T05:55:07;62.55;;;30.15;;
8698;SDS011;4386;51.236;6.742;2022-12-10T05:56:10;67.63;;;30.60;;
8698;SDS011;4386;51.236;6.742;2022-12-10T05:57:14;66.25;;;31.45;;
8698;SDS011;4386;51.236;6.742;2022-12-10T05:58:15;66.53;;;32.47;;
8698;SDS011;4386;51.236;6.742;2022-12-10T05:59:18;64.70;;;31.52;;
8698;SDS011;4386;51.236;6.742;2022-12-10T06:00:20;62.60;;;31.35;;
8698;SDS011;4386;51.236;6.742;2022-12-10T06:01:25;56.80;;;29.20;;
8698;SDS011;4386;51.236;6.742;2022-12-10T06:02:28;64.60;;;31.75;;
8698;SDS011;4386;51.236;6.742;2022-12-10T06:03:30;62.55;;;30.10;;
8698;SDS011;4386;51.236;6.742;2022-12-10T06:04:32;63.75;;;30.13;;
8698;SDS011;4386;51.236;6.742;2022-12-10T06:05:35;57.53;;;30.58;;
8698;SDS011;4386;51.236;6.742;2022-12-10T06:06:38;66.18;;;32.20;;
8698;SDS011;4386;51.236;6.742;2022-12-10T06:07:43;61.08;;;30.58;;
8698;SDS011;4386;51.236;6.742;2022-12-10T06:08:45;65.47;;;32.17;;
8698;SDS011;4386;51.236;6.742;2022-12-10T06:09:47;67.50;;;29.73;;
8698;SDS011;4386;51.236;6.742;2022-12-10T06:10:49;63.17;;;33.63;;
8698;SDS011;4386;51.236;6.742;2022-12-10T06:11:52;69.40;;;32.85;;
8698;SDS011;4386;51.236;6.742;2022-12-10T06:12:53;59.70;;;30.48;;
8698;SDS011;4386;51.236;6.742;2022-12-10T06:13:56;68.10;;;33.92;;
8698;SDS011;4386;51.236;6.742;2022-12-10T06:14:59;62.22;;;31.73;;
8698;SDS011;4386;51.236;6.742;2022-12-10T06:16:03;66.38;;;32.80;;
8698;SDS011;4386;51.236;6.742;2022-12-10T06:17:05;68.85;;;33.30;;
8698;SDS011;4386;51.236;6.742;2022-12-10T06:18:08;71.00;;;33.70;;
8698;SDS011;4386;51.236;6.742;2022-12-10T06:19:11;70.80;;;33.30;;
8698;SDS011;4386;51.236;6.742;2022-12-10T06:20:13;65.57;;;32.60;;
8698;SDS011;4386;51.236;6.742;2022-12-10T06:21:15;62.70;;;31.23;;
8698;SDS011;4386;51.236;6.742;2022-12-10T06:22:18;76.35;;;34.20;;
8698;SDS011;4386;51.236;6.742;2022-12-10T06:23:21;72.38;;;34.30;;
8698;SDS011;4386;51.236;6.742;2022-12-10T06:24:24;64.22;;;33.63;;
8698;SDS011;4386;51.236;6.742;2022-12-10T06:25:26;69.40;;;33.53;;
8698;SDS011;4386;51.236;6.742;2022-12-10T06:26:28;65.63;;;32.20;;
8698;SDS011;4386;51.236;6.742;2022-12-10T06:27:30;65.25;;;33.78;;
8698;SDS011;4386;51.236;6.742;2022-12-10T06:28:33;74.07;;;34.13;;